You must use a browser capable of displaying tables to view this page.

The table shows the data used to make the storm track maps. Click on the storm name in the first row to get a close up view of the storm track.

Name Date Time (UT) Lat (degrees) Lon (degrees) Course (true) Speed (knots) Pressure (mb) Wind (knots) Gusts (knots) Type Actual / Forecast WMO
ROKE 2011-09-11 12:00 21.2N 135.9E 280 07 ??? 025 035 DEP ACT WTPN31
ROKE 2011-09-11 18:00 21.1N 135.8E 270 04 ??? 025 035 DEP ACT WTPN31
ROKE 2011-09-12 00:00 21.2N 135.7E 270 03 ??? 030 040 DEP ACT WTPN31
ROKE 2011-09-12 06:00 21.2N 135.4E 270 02 ??? 030 040 DEP ACT WTPN31
ROKE 2011-09-12 12:00 21.3N 135.2E 300 02 ??? 030 040 DEP ACT WTPN31
ROKE 2011-09-12 18:00 21.7N 135.1E 270 02 ??? 030 040 DEP ACT WTPN31
ROKE 2011-09-13 00:00 21.8N 135.3E 270 01 ??? 030 040 DEP ACT WTPN31
ROKE 2011-09-13 06:00 22.3N 136.8E 075 07 ??? 030 040 DEP ACT WTPN31
ROKE 2011-09-13 12:00 23.2N 138.2E 055 14 ??? 030 040 DEP ACT WTPN31
ROKE 2011-09-13 18:00 23.8N 138.2E 020 10 ??? 035 045 STO ACT WTPN31
ROKE 2011-09-14 00:00 24.3N 137.5E 325 08 ??? 035 045 STO ACT WTPN31
ROKE 2011-09-14 06:00 24.6N 136.8E 295 07 ??? 035 045 STO ACT WTPN31
ROKE 2011-09-14 12:00 25.5N 135.2E 300 17 ??? 030 040 DEP ACT WTPN31
ROKE 2011-09-14 18:00 25.6N 133.5E 280 15 ??? 035 045 STO ACT WTPN31
ROKE 2011-09-15 00:00 25.4N 132.2E 265 12 ??? 035 045 STO ACT WTPN31
ROKE 2011-09-15 06:00 25.7N 131.6E 305 09 ??? 035 045 STO ACT WTPN31
ROKE 2011-09-15 12:00 25.8N 130.9E 280 06 ??? 035 045 STO ACT WTPN31
ROKE 2011-09-15 18:00 26.1N 130.4E 300 06 ??? 035 045 STO ACT WTPN31
ROKE 2011-09-16 00:00 26.3N 130.0E 295 05 ??? 035 045 STO ACT WTPN31
ROKE 2011-09-16 06:00 26.4N 129.8E 300 02 ??? 035 045 STO ACT WTPN31
ROKE 2011-09-16 12:00 26.1N 129.6E 210 03 ??? 040 050 STO ACT WTPN31
ROKE 2011-09-17 00:00 25.9N 129.3E ??? ??? ??? 034 050 ??? FOR WTPN31
ROKE 2011-09-17 12:00 25.8N 129.0E ??? ??? ??? 034 050 ??? FOR WTPN31
ROKE 2011-09-18 00:00 25.9N 128.6E ??? ??? ??? 034 050 ??? FOR WTPN31
ROKE 2011-09-18 12:00 25.9N 128.3E ??? ??? ??? 034 055 ??? FOR WTPN31
ROKE 2011-09-19 12:00 26.0N 128.1E ??? ??? ??? 034 055 ??? FOR WTPN31
ROKE 2011-09-20 12:00 26.4N 128.2E ??? ??? ??? 040 050 ??? FOR WTPN31
ROKE 2011-09-21 12:00 28.3N 130.4E ??? ??? ??? 040 050 ??? FOR WTPN31


Home Back

metcalf@akala.ifa.hawaii.edu